createdAt,value
2023-11-30T00:00:22.064Z,97713.28
2023-11-30T00:03:09.061Z,97720.16
2023-11-30T00:05:36.825Z,97723.66
2023-11-30T00:08:03.721Z,97714.03
2023-11-30T00:10:30.793Z,97715.69
2023-11-30T00:12:57.627Z,97713.38
2023-11-30T00:15:24.819Z,97709.44
2023-11-30T00:17:51.694Z,97706.75
2023-11-30T00:20:18.840Z,97709.13
2023-11-30T00:22:47.220Z,97713.69
2023-11-30T00:25:14.358Z,97713.78
2023-11-30T00:27:41.171Z,97713.59
2023-11-30T00:30:08.924Z,97716.25
2023-11-30T00:32:36.915Z,97719.56
2023-11-30T00:35:04.647Z,97713.41
2023-11-30T00:37:31.469Z,97703.91
2023-11-30T00:39:58.612Z,97695.63
2023-11-30T00:42:26.819Z,97692.13
2023-11-30T00:44:54.194Z,97692.97
2023-11-30T00:47:21.004Z,97694.78
2023-11-30T00:49:48.194Z,97695.81
2023-11-30T00:52:15.017Z,97694.78
2023-11-30T00:54:42.121Z,97695.81
2023-11-30T00:57:08.933Z,97696.59
2023-11-30T00:59:36.073Z,97699.63
2023-11-30T01:02:02.914Z,97702.59
2023-11-30T01:04:30.045Z,97712.34
2023-11-30T01:06:56.885Z,97705.06
2023-11-30T01:09:24.036Z,97705.25
2023-11-30T01:11:50.932Z,97706.19
2023-11-30T01:14:18.114Z,97697.94
2023-11-30T01:16:46.079Z,97701.72
2023-11-30T01:19:13.366Z,97706.00
2023-11-30T01:21:40.302Z,97704.38
2023-11-30T01:24:07.648Z,97720.16
2023-11-30T01:26:34.464Z,97717.47
2023-11-30T01:29:01.558Z,97713.56
2023-11-30T01:31:28.376Z,97717.75
2023-11-30T01:33:55.517Z,97718.72
2023-11-30T01:36:22.430Z,97720.25
2023-11-30T01:38:49.576Z,97716.75
2023-11-30T01:41:16.653Z,97721.78
2023-11-30T01:43:43.740Z,97714.06
2023-11-30T01:46:11.044Z,97708.75
2023-11-30T01:48:38.208Z,97708.38
2023-11-30T01:51:06.774Z,97706.56
2023-11-30T01:53:37.769Z,97719.31
2023-11-30T01:56:05.323Z,97713.78
2023-11-30T01:58:32.465Z,97702.50
2023-11-30T02:01:00.124Z,97705.44
2023-11-30T02:03:27.824Z,97705.25
2023-11-30T02:05:54.720Z,97701.28
2023-11-30T02:08:21.839Z,97696.59
2023-11-30T02:10:48.623Z,97691.78
2023-11-30T02:13:15.733Z,97695.38
2023-11-30T02:15:42.607Z,97701.16
2023-11-30T02:18:09.872Z,97697.06
2023-11-30T02:20:36.773Z,97685.38
2023-11-30T02:23:03.918Z,97688.31
2023-11-30T02:25:30.692Z,97684.34
2023-11-30T02:27:59.845Z,97680.91
2023-11-30T02:30:27.045Z,97677.97
2023-11-30T02:32:54.419Z,97663.06
2023-11-30T02:35:21.423Z,97684.31
2023-11-30T02:37:48.599Z,97666.50
2023-11-30T02:40:15.487Z,97668.66
2023-11-30T02:42:42.648Z,97669.06
2023-11-30T02:45:10.269Z,97660.69
2023-11-30T02:47:37.504Z,97673.91
2023-11-30T02:50:04.769Z,97672.34
2023-11-30T02:52:32.367Z,97669.72
2023-11-30T02:54:59.148Z,97664.00
2023-11-30T02:57:26.589Z,97655.38
2023-11-30T02:59:53.431Z,97655.75
2023-11-30T03:02:20.655Z,97662.97
2023-11-30T03:04:47.841Z,97654.88
2023-11-30T03:07:15.061Z,97660.41
2023-11-30T03:09:41.879Z,97664.19
2023-11-30T03:12:09.160Z,97663.81
2023-11-30T03:14:36.101Z,97667.16
2023-11-30T03:17:03.526Z,97665.16
2023-11-30T03:19:30.324Z,97657.38
2023-11-30T03:21:57.736Z,97659.47
2023-11-30T03:24:24.593Z,97654.78
2023-11-30T03:26:51.883Z,97647.47
2023-11-30T03:29:18.712Z,97652.88
2023-11-30T03:31:45.875Z,97648.34
2023-11-30T03:34:12.723Z,97653.94
2023-11-30T03:36:40.016Z,97646.63
2023-11-30T03:39:07.070Z,97644.06
2023-11-30T03:41:34.252Z,97651.19
2023-11-30T03:44:01.093Z,97659.94
2023-11-30T03:46:28.756Z,97657.44
2023-11-30T03:48:55.674Z,97656.03
2023-11-30T03:51:22.876Z,97653.75
2023-11-30T03:53:49.772Z,97658.50
2023-11-30T03:56:16.847Z,97649.09
2023-11-30T03:58:43.878Z,97654.25
2023-11-30T04:01:10.968Z,97655.25
2023-11-30T04:03:37.948Z,97657.00
2023-11-30T04:06:05.370Z,97662.88
2023-11-30T04:08:32.204Z,97662.41
2023-11-30T04:10:59.312Z,97654.53
2023-11-30T04:13:26.667Z,97658.31
2023-11-30T04:15:53.772Z,97659.34
2023-11-30T04:18:20.740Z,97655.28
2023-11-30T04:20:47.895Z,97649.38
2023-11-30T04:23:14.860Z,97650.72
2023-11-30T04:25:41.998Z,97651.66
2023-11-30T04:28:09.964Z,97640.06
2023-11-30T04:30:37.275Z,97642.41
2023-11-30T04:33:05.252Z,97645.84
2023-11-30T04:35:32.891Z,97644.31
2023-11-30T04:37:59.801Z,97640.72
2023-11-30T04:40:26.944Z,97646.81
2023-11-30T04:42:53.876Z,97636.53
2023-11-30T04:45:21.104Z,97642.31
2023-11-30T04:47:47.941Z,97650.03
2023-11-30T04:50:15.058Z,97648.31
2023-11-30T04:52:41.909Z,97640.88
2023-11-30T04:55:09.401Z,97647.06
2023-11-30T04:57:36.375Z,97641.56
2023-11-30T05:00:06.563Z,97644.78
2023-11-30T05:02:34.370Z,97646.31
2023-11-30T05:05:01.652Z,97636.53
2023-11-30T05:07:28.597Z,97642.41
2023-11-30T05:09:55.751Z,97646.59
2023-11-30T05:12:22.551Z,97638.13
2023-11-30T05:14:49.813Z,97642.78
2023-11-30T05:17:16.599Z,97634.06
2023-11-30T05:19:43.737Z,97639.75
2023-11-30T05:22:12.438Z,97642.50
2023-11-30T05:24:39.811Z,97642.31
2023-11-30T05:27:06.750Z,97632.69
2023-11-30T05:29:34.054Z,97645.53
2023-11-30T05:32:00.906Z,97646.00
2023-11-30T05:34:28.098Z,97652.97
2023-11-30T05:36:54.910Z,97652.44
2023-11-30T05:39:22.060Z,97649.31
2023-11-30T05:41:48.873Z,97649.13
2023-11-30T05:44:16.853Z,97645.69
2023-11-30T05:46:43.803Z,97639.91
2023-11-30T05:49:11.103Z,97640.66
2023-11-30T05:51:37.964Z,97643.44
2023-11-30T05:54:05.355Z,97643.53
2023-11-30T05:56:32.202Z,97639.03
2023-11-30T05:58:59.380Z,97645.34
2023-11-30T06:01:26.491Z,97653.22
2023-11-30T06:03:53.942Z,97646.66
2023-11-30T06:06:21.025Z,97649.13
2023-11-30T06:08:48.409Z,97648.94
2023-11-30T06:11:18.273Z,97644.59
2023-11-30T06:13:46.475Z,97653.91
2023-11-30T06:16:13.434Z,97660.66
2023-11-30T06:18:40.621Z,97657.22
2023-11-30T06:21:10.586Z,97662.44
2023-11-30T06:23:38.490Z,97663.13
2023-11-30T06:26:06.249Z,97658.28
2023-11-30T06:28:33.395Z,97660.09
2023-11-30T06:31:00.203Z,97662.84
2023-11-30T06:33:27.886Z,97664.44
2023-11-30T06:35:54.834Z,97666.47
2023-11-30T06:38:22.002Z,97674.25
2023-11-30T06:40:50.203Z,97668.09
2023-11-30T06:43:17.685Z,97665.41
2023-11-30T06:45:44.717Z,97669.03
2023-11-30T06:48:11.961Z,97671.50
2023-11-30T06:50:38.816Z,97678.81
2023-11-30T06:53:06.013Z,97667.88
2023-11-30T06:55:32.952Z,97680.41
2023-11-30T06:58:00.181Z,97682.16
2023-11-30T07:00:28.180Z,97695.25
2023-11-30T07:02:55.550Z,97702.28
2023-11-30T07:05:22.444Z,97694.38
2023-11-30T07:07:49.799Z,97697.69
2023-11-30T07:10:16.757Z,97700.59
2023-11-30T07:12:44.179Z,97702.47
2023-11-30T07:15:11.161Z,97699.22
2023-11-30T07:17:38.372Z,97708.56
2023-11-30T07:20:05.919Z,97700.69
2023-11-30T07:22:33.050Z,97700.28
2023-11-30T07:24:59.883Z,97692.50
2023-11-30T07:27:27.689Z,97705.41
2023-11-30T07:29:54.993Z,97705.50
2023-11-30T07:32:22.141Z,97699.53
2023-11-30T07:34:49.497Z,97690.59
2023-11-30T07:37:17.722Z,97685.09
2023-11-30T07:39:45.388Z,97683.72
2023-11-30T07:42:13.414Z,97682.31
2023-11-30T07:44:41.039Z,97675.75
2023-11-30T07:47:08.236Z,97676.78
2023-11-30T07:49:35.063Z,97674.28
2023-11-30T07:52:02.639Z,97670.78
2023-11-30T07:54:29.713Z,97673.16
2023-11-30T07:56:56.839Z,97669.41
2023-11-30T07:59:23.710Z,97672.69
2023-11-30T08:01:50.875Z,97664.69
2023-11-30T08:04:17.915Z,97668.16
2023-11-30T08:06:46.018Z,97667.97
2023-11-30T08:09:14.711Z,97673.59
2023-11-30T08:11:42.218Z,97673.59
2023-11-30T08:14:10.197Z,97671.88
2023-11-30T08:16:39.085Z,97678.06
2023-11-30T08:19:07.676Z,97675.94
2023-11-30T08:21:37.171Z,97684.13
2023-11-30T08:24:05.308Z,97681.19
2023-11-30T08:26:32.439Z,97677.56
2023-11-30T08:28:59.228Z,97672.34
2023-11-30T08:31:26.824Z,97676.72
2023-11-30T08:33:53.725Z,97675.94
2023-11-30T08:36:21.008Z,97668.97
2023-11-30T08:38:47.842Z,97666.16
2023-11-30T08:41:14.948Z,97673.94
2023-11-30T08:43:42.035Z,97672.22
2023-11-30T08:46:09.573Z,97677.66
2023-11-30T08:48:36.469Z,97684.06
2023-11-30T08:51:03.756Z,97680.63
2023-11-30T08:53:30.742Z,97677.00
2023-11-30T08:55:57.973Z,97686.47
2023-11-30T08:58:24.800Z,97678.47
2023-11-30T09:00:51.898Z,97680.72
2023-11-30T09:03:19.431Z,97678.94
2023-11-30T09:05:46.721Z,97689.38
2023-11-30T09:08:13.541Z,97693.38
2023-11-30T09:10:40.853Z,97692.53
2023-11-30T09:13:09.235Z,97691.06
2023-11-30T09:15:37.414Z,97685.72
2023-11-30T09:18:04.701Z,97684.00
2023-11-30T09:20:31.994Z,97682.09
2023-11-30T09:22:58.889Z,97682.50
2023-11-30T09:25:26.287Z,97677.19
2023-11-30T09:27:53.191Z,97661.84
2023-11-30T09:30:20.335Z,97656.81
2023-11-30T09:32:47.286Z,97649.38
2023-11-30T09:35:14.476Z,97654.06
2023-11-30T09:37:41.394Z,97643.75
2023-11-30T09:40:10.572Z,97643.47
2023-11-30T09:42:37.438Z,97641.19
2023-11-30T09:45:05.581Z,97640.16
2023-11-30T09:47:32.641Z,97633.09
2023-11-30T09:50:01.897Z,97635.75
2023-11-30T09:52:29.795Z,97636.53
2023-11-30T09:54:57.772Z,97637.38
2023-11-30T09:57:24.709Z,97626.22
2023-11-30T09:59:51.934Z,97623.75
2023-11-30T10:02:20.242Z,97609.47
2023-11-30T10:04:47.537Z,97605.94
2023-11-30T10:07:14.456Z,97604.03
2023-11-30T10:09:41.730Z,97605.53
2023-11-30T10:12:08.847Z,97598.59
2023-11-30T10:14:36.054Z,97599.66
2023-11-30T10:17:03.071Z,97591.34
2023-11-30T10:19:31.803Z,97589.44
2023-11-30T10:21:58.829Z,97588.91
2023-11-30T10:24:26.705Z,97578.78
2023-11-30T10:26:53.632Z,97584.22
2023-11-30T10:29:22.171Z,97584.97
2023-11-30T10:31:50.853Z,97575.03
2023-11-30T10:34:20.350Z,97585.50
2023-11-30T10:36:47.240Z,97582.00
2023-11-30T10:39:24.510Z,97579.09
2023-11-30T10:41:56.083Z,97577.41
2023-11-30T10:44:27.711Z,97574.94
2023-11-30T10:46:59.574Z,97580.91
2023-11-30T10:49:28.412Z,97571.31
2023-11-30T10:51:59.062Z,97561.94
2023-11-30T10:54:32.981Z,97558.53
2023-11-30T10:57:00.844Z,97566.94
2023-11-30T10:59:31.640Z,97566.63
2023-11-30T11:01:58.853Z,97556.72
2023-11-30T11:04:29.257Z,97551.16
2023-11-30T11:07:15.120Z,97546.69
2023-11-30T11:09:51.369Z,97556.91
2023-11-30T11:12:24.726Z,97557.34
2023-11-30T11:14:54.146Z,97550.44
2023-11-30T11:17:21.688Z,97550.19
2023-11-30T11:19:48.890Z,97557.25
2023-11-30T11:22:15.768Z,97552.84
2023-11-30T11:24:43.085Z,97545.63
2023-11-30T11:27:10.782Z,97551.91
2023-11-30T11:29:42.571Z,97552.53
2023-11-30T11:32:12.376Z,97546.69
2023-11-30T11:34:39.481Z,97550.97
2023-11-30T11:37:08.316Z,97537.00
2023-11-30T11:39:35.628Z,97527.59
2023-11-30T11:42:03.619Z,97535.50
2023-11-30T11:44:30.835Z,97538.91
2023-11-30T11:46:57.663Z,97537.19
2023-11-30T11:49:24.940Z,97524.50
2023-11-30T11:51:51.927Z,97522.06
2023-11-30T11:54:19.969Z,97512.75
2023-11-30T11:56:49.849Z,97501.56
2023-11-30T11:59:33.188Z,97506.47
2023-11-30T12:02:01.025Z,97501.88
2023-11-30T12:04:35.191Z,97499.22
2023-11-30T12:07:15.857Z,97503.81
2023-11-30T12:09:43.388Z,97496.97
2023-11-30T12:12:10.276Z,97503.59
2023-11-30T12:14:37.447Z,97490.91
2023-11-30T12:17:04.372Z,97497.06
2023-11-30T12:19:31.453Z,97488.13
2023-11-30T12:21:58.378Z,97488.53
2023-11-30T12:24:25.620Z,97475.41
2023-11-30T12:26:52.547Z,97475.75
2023-11-30T12:29:19.652Z,97468.72
2023-11-30T12:31:46.477Z,97467.53
2023-11-30T12:34:13.754Z,97467.53
2023-11-30T12:36:40.667Z,97465.38
2023-11-30T12:39:08.424Z,97474.25
2023-11-30T12:41:35.355Z,97465.59
2023-11-30T12:44:04.914Z,97460.78
2023-11-30T12:46:32.526Z,97465.28
2023-11-30T12:48:59.777Z,97452.50
2023-11-30T12:51:26.660Z,97448.88
2023-11-30T12:53:53.878Z,97448.09
2023-11-30T12:56:20.864Z,97449.28
2023-11-30T12:58:48.267Z,97448.66
2023-11-30T13:01:15.195Z,97453.44
2023-11-30T13:03:42.929Z,97448.44
2023-11-30T13:06:11.255Z,97444.78
2023-11-30T13:08:38.490Z,97447.59
2023-11-30T13:11:05.471Z,97445.75
2023-11-30T13:13:41.866Z,97447.22
2023-11-30T13:16:10.797Z,97441.38
2023-11-30T13:18:38.338Z,97456.25
2023-11-30T13:21:06.386Z,97453.13
2023-11-30T13:23:33.663Z,97442.25
2023-11-30T13:26:00.564Z,97441.91
2023-11-30T13:28:35.422Z,97456.53
2023-11-30T13:31:07.684Z,97452.16
2023-11-30T13:33:35.521Z,97449.50
2023-11-30T13:36:02.375Z,97440.94
2023-11-30T13:38:29.543Z,97439.69
2023-11-30T13:40:56.357Z,97441.06
2023-11-30T13:43:24.194Z,97441.59
2023-11-30T13:45:52.172Z,97438.50
2023-11-30T13:48:19.563Z,97441.59
2023-11-30T13:50:53.362Z,97445.13
2023-11-30T13:53:23.678Z,97447.81
2023-11-30T13:55:50.525Z,97442.69
2023-11-30T13:58:17.667Z,97446.81
2023-11-30T14:00:44.673Z,97449.59
2023-11-30T14:03:12.427Z,97449.50
2023-11-30T14:05:39.448Z,97438.41
2023-11-30T14:08:06.803Z,97439.91
2023-11-30T14:10:33.713Z,97435.44
2023-11-30T14:13:00.997Z,97448.03
2023-11-30T14:15:27.899Z,97457.72
2023-11-30T14:17:55.074Z,97456.53
2023-11-30T14:20:22.314Z,97462.28
2023-11-30T14:22:49.645Z,97453.66
2023-11-30T14:25:16.695Z,97449.28
2023-11-30T14:27:46.803Z,97443.31
2023-11-30T14:30:14.513Z,97449.50
2023-11-30T14:32:42.206Z,97454.09
2023-11-30T14:35:09.367Z,97452.28
2023-11-30T14:37:36.565Z,97451.00
2023-11-30T14:40:05.188Z,97465.63
2023-11-30T14:42:32.983Z,97470.50
2023-11-30T14:44:59.935Z,97469.44
2023-11-30T14:47:28.090Z,97465.91
2023-11-30T14:49:56.105Z,97461.38
2023-11-30T14:52:23.915Z,97456.31
2023-11-30T14:54:53.594Z,97451.94
2023-11-30T14:57:20.999Z,97445.03
2023-11-30T14:59:50.829Z,97438.72
2023-11-30T15:02:18.581Z,97441.38
2023-11-30T15:04:45.556Z,97443.09
2023-11-30T15:07:12.630Z,97454.81
2023-11-30T15:09:41.559Z,97442.13
2023-11-30T15:12:09.081Z,97443.72
2023-11-30T15:14:35.916Z,97464.22
2023-11-30T15:17:03.302Z,97465.81
2023-11-30T15:19:30.140Z,97450.38
2023-11-30T15:21:57.261Z,97451.94
2023-11-30T15:24:24.123Z,97447.69
2023-11-30T15:26:51.512Z,97445.88
2023-11-30T15:29:18.343Z,97443.31
2023-11-30T15:31:45.541Z,97451.22
2023-11-30T15:34:12.352Z,97456.53
2023-11-30T15:36:42.819Z,97452.78
2023-11-30T15:39:14.697Z,97461.66
2023-11-30T15:41:47.036Z,97456.31
2023-11-30T15:44:14.200Z,97457.38
2023-11-30T15:46:44.704Z,97452.78
2023-11-30T15:49:14.493Z,97446.50
2023-11-30T15:51:43.174Z,97436.78
2023-11-30T15:54:10.942Z,97437.88
2023-11-30T15:56:38.427Z,97437.97
2023-11-30T15:59:05.292Z,97443.09
2023-11-30T16:01:32.545Z,97438.59
2023-11-30T16:04:00.403Z,97431.69
2023-11-30T16:06:27.808Z,97429.88
2023-11-30T16:08:55.263Z,97431.59
2023-11-30T16:11:22.370Z,97415.81
2023-11-30T16:13:49.457Z,97405.25
2023-11-30T16:16:17.065Z,97400.88
2023-11-30T16:18:43.989Z,97399.63
2023-11-30T16:21:18.650Z,97400.25
2023-11-30T16:23:46.380Z,97386.91
2023-11-30T16:26:17.810Z,97387.13
2023-11-30T16:28:45.106Z,97398.53
2023-11-30T16:31:12.508Z,97394.91
2023-11-30T16:33:40.424Z,97402.06
2023-11-30T16:36:08.788Z,97398.41
2023-11-30T16:38:36.153Z,97397.56
2023-11-30T16:41:03.967Z,97404.38
2023-11-30T16:43:32.454Z,97399.19
2023-11-30T16:45:59.733Z,97393.84
2023-11-30T16:48:27.011Z,97390.41
2023-11-30T16:50:54.142Z,97390.31
2023-11-30T16:53:20.974Z,97392.03
2023-11-30T16:55:48.587Z,97398.19
2023-11-30T16:58:15.393Z,97408.34
2023-11-30T17:00:42.760Z,97394.59
2023-11-30T17:03:09.654Z,97391.28
2023-11-30T17:05:38.866Z,97379.53
2023-11-30T17:08:05.717Z,97376.88
2023-11-30T17:10:32.839Z,97370.69
2023-11-30T17:12:59.710Z,97363.88
2023-11-30T17:15:27.081Z,97366.63
2023-11-30T17:17:53.957Z,97375.41
2023-11-30T17:20:21.039Z,97373.47
2023-11-30T17:22:50.727Z,97390.31
2023-11-30T17:25:17.943Z,97385.09
2023-11-30T17:27:44.783Z,97381.47
2023-11-30T17:30:12.262Z,97376.34
2023-11-30T17:32:39.183Z,97376.56
2023-11-30T17:35:07.025Z,97374.53
2023-11-30T17:37:33.930Z,97365.81
2023-11-30T17:40:01.535Z,97367.41
2023-11-30T17:42:28.526Z,97371.75
2023-11-30T17:44:55.839Z,97372.84
2023-11-30T17:47:23.144Z,97382.53
2023-11-30T17:49:50.289Z,97372.53
2023-11-30T17:52:17.244Z,97365.81
2023-11-30T17:54:44.462Z,97375.72
2023-11-30T17:57:11.348Z,97365.91
2023-11-30T17:59:38.579Z,97359.09
2023-11-30T18:02:05.647Z,97373.16
2023-11-30T18:04:33.280Z,97365.91
2023-11-30T18:07:00.190Z,97372.13
2023-11-30T18:09:28.038Z,97366.53
2023-11-30T18:11:55.095Z,97354.41
2023-11-30T18:14:23.591Z,97364.97
2023-11-30T18:16:50.490Z,97354.50
2023-11-30T18:19:17.720Z,97342.78
2023-11-30T18:21:44.559Z,97333.06
2023-11-30T18:24:11.806Z,97310.91
2023-11-30T18:26:38.604Z,97309.19
2023-11-30T18:29:06.075Z,97316.34
2023-11-30T18:31:33.347Z,97319.34
2023-11-30T18:34:00.600Z,97307.47
2023-11-30T18:36:27.595Z,97310.03
2023-11-30T18:38:55.012Z,97306.41
2023-11-30T18:41:22.069Z,97310.03
2023-11-30T18:43:49.927Z,97311.75
2023-11-30T18:46:17.099Z,97334.91
2023-11-30T18:48:44.680Z,97344.69
2023-11-30T18:51:11.641Z,97348.34
2023-11-30T18:53:39.016Z,97375.72
2023-11-30T18:56:06.204Z,97379.97
2023-11-30T18:58:33.405Z,97403.22
2023-11-30T19:01:00.307Z,97407.84
2023-11-30T19:03:27.616Z,97387.56
2023-11-30T19:05:55.047Z,97374.38
2023-11-30T19:08:22.227Z,97376.56
2023-11-30T19:10:49.070Z,97387.44
2023-11-30T19:13:16.311Z,97383.22
2023-11-30T19:15:43.334Z,97354.72
2023-11-30T19:18:10.940Z,97346.09
2023-11-30T19:20:38.339Z,97339.06
2023-11-30T19:23:05.693Z,97343.22
2023-11-30T19:25:35.331Z,97362.00
2023-11-30T19:28:02.585Z,97366.22
2023-11-30T19:30:29.599Z,97351.53
2023-11-30T19:32:56.777Z,97353.16
2023-11-30T19:35:23.590Z,97333.41
2023-11-30T19:37:50.748Z,97330.41
2023-11-30T19:40:17.826Z,97324.56
2023-11-30T19:42:44.957Z,97311.56
2023-11-30T19:45:12.015Z,97307.06
2023-11-30T19:47:39.543Z,97313.28
2023-11-30T19:50:07.175Z,97308.06
2023-11-30T19:52:36.279Z,97288.53
2023-11-30T19:55:04.859Z,97279.78
2023-11-30T19:57:32.096Z,97247.06
2023-11-30T19:59:59.014Z,97262.84
2023-11-30T20:02:26.456Z,97264.44
2023-11-30T20:04:53.376Z,97271.69
2023-11-30T20:07:20.707Z,97292.78
2023-11-30T20:09:47.632Z,97315.06
2023-11-30T20:12:14.790Z,97317.72
2023-11-30T20:14:42.188Z,97316.06
2023-11-30T20:17:09.411Z,97315.19
2023-11-30T20:19:36.472Z,97310.31
2023-11-30T20:22:04.051Z,97324.59
2023-11-30T20:24:35.092Z,97320.13
2023-11-30T20:27:08.658Z,97314.56
2023-11-30T20:29:35.582Z,97314.56
2023-11-30T20:32:02.840Z,97332.25
2023-11-30T20:34:29.719Z,97336.00
2023-11-30T20:36:57.517Z,97326.09
2023-11-30T20:39:25.907Z,97328.75
2023-11-30T20:41:53.236Z,97338.53
2023-11-30T20:44:20.487Z,97335.16
2023-11-30T20:46:47.636Z,97313.59
2023-11-30T20:49:15.023Z,97309.34
2023-11-30T20:51:42.279Z,97309.22
2023-11-30T20:54:10.243Z,97318.00
2023-11-30T20:56:37.576Z,97330.81
2023-11-30T20:59:04.400Z,97331.44
2023-11-30T21:01:32.265Z,97332.47
2023-11-30T21:12:15.616Z,97307.75
2023-11-30T21:14:43.141Z,97312.00
2023-11-30T21:17:10.478Z,97308.72
2023-11-30T21:19:37.400Z,97303.06
2023-11-30T21:22:05.005Z,97318.22
2023-11-30T21:24:34.252Z,97324.59
2023-11-30T21:27:01.559Z,97319.03
2023-11-30T21:29:28.466Z,97314.81
2023-11-30T21:31:55.721Z,97315.44
2023-11-30T21:34:22.646Z,97315.44
2023-11-30T21:36:50.211Z,97318.09
2023-11-30T21:39:17.141Z,97323.66
2023-11-30T21:41:44.345Z,97325.31
2023-11-30T21:44:11.292Z,97334.09
2023-11-30T21:46:38.497Z,97332.38
2023-11-30T21:49:05.735Z,97331.44
2023-11-30T21:51:33.372Z,97340.47
2023-11-30T21:54:03.211Z,97344.63
2023-11-30T21:56:30.437Z,97333.22
2023-11-30T21:58:57.374Z,97330.44
2023-11-30T22:01:24.786Z,97342.09
2023-11-30T22:03:51.816Z,97355.41
2023-11-30T22:06:19.076Z,97344.84
2023-11-30T22:08:49.919Z,97334.31
2023-11-30T22:11:18.330Z,97339.41
2023-11-30T22:13:45.933Z,97344.75
2023-11-30T22:16:15.035Z,97361.47
2023-11-30T22:18:43.720Z,97363.53
2023-11-30T22:21:10.976Z,97359.13
2023-11-30T22:23:37.887Z,97349.56
2023-11-30T22:26:05.319Z,97347.63
2023-11-30T22:28:32.290Z,97337.91
2023-11-30T22:31:00.004Z,97338.38
2023-11-30T22:33:27.034Z,97339.84
2023-11-30T22:35:54.354Z,97348.59
2023-11-30T22:38:21.877Z,97346.91
2023-11-30T22:40:49.157Z,97337.28
2023-11-30T22:43:16.005Z,97327.38
2023-11-30T22:45:43.291Z,97328.97
2023-11-30T22:48:10.240Z,97327.25
2023-11-30T22:50:37.565Z,97322.91
2023-11-30T22:53:04.654Z,97323.97
2023-11-30T22:55:32.016Z,97329.19
2023-11-30T22:57:58.989Z,97331.63
2023-11-30T23:00:27.599Z,97313.94
2023-11-30T23:02:54.694Z,97308.59
2023-11-30T23:05:22.191Z,97312.00
2023-11-30T23:07:49.198Z,97325.47
2023-11-30T23:10:18.695Z,97328.50
2023-11-30T23:12:46.232Z,97334.31
2023-11-30T23:15:13.620Z,97322.66
2023-11-30T23:17:40.701Z,97327.88
2023-11-30T23:20:08.598Z,97326.94
2023-11-30T23:22:36.085Z,97329.72
2023-11-30T23:25:06.594Z,97320.75
2023-11-30T23:27:33.603Z,97304.38
2023-11-30T23:30:01.092Z,97308.59
2023-11-30T23:32:28.103Z,97316.28
2023-11-30T23:34:55.390Z,97321.81
2023-11-30T23:37:22.426Z,97314.91
2023-11-30T23:39:49.736Z,97314.16
2023-11-30T23:42:17.075Z,97311.16
2023-11-30T23:44:44.463Z,97313.72
2023-11-30T23:47:11.619Z,97319.78
2023-11-30T23:49:38.945Z,97324.28
2023-11-30T23:52:06.524Z,97308.28
2023-11-30T23:54:33.904Z,97319.78
2023-11-30T23:57:00.919Z,97324.38
2023-11-30T23:59:28.185Z,97330.34
